Change the Weather History Date:

Thursday, February 21, 2013

  Actual Average (KAIZ) Record (KAIZ)
Temperature  
Mean Temperature 28 °F -  
Max Temperature 32 °F 46 °F 64 °F (2000)
Min Temperature 23 °F 28 °F 17 °F (2008)
Degree Days  
Heating Degree Days 38    
Moisture  
Dew Point 24 °F    
Average Humidity 84    
Maximum Humidity 100    
Minimum Humidity 51    
Precipitation  
Precipitation 0.43 in - - ()
Sea Level Pressure  
Sea Level Pressure 29.92 in    
Wind  
Wind Speed 9 mph (East)    
Max Wind Speed 17 mph    
Max Gust Speed 29 mph    
Visibility 6 miles    
Events Snow , Thunderstorm    
Averages and records for this station are not official NWS values.
T = Trace of Precipitation, MM = Missing Value Source: NWS Daily Summary

Daily Weather History Graph

Daily Weather History Graph

Search for Another Location

Airport or City:

Trip Planner

Search our weather history database for the weather conditions in past years. The results will help you decide how hot, cold, wet, or windy it might be!

Date:

Astronomy

Feb. 21, 2013 Rise Set
Actual Time 6:52 AM CST 5:56 PM CST
Civil Twilight 6:26 AM CST 6:22 PM CST
Nautical Twilight 5:55 AM CST 6:53 PM CST
Astronomical Twilight 5:25 AM CST 7:24 PM CST
Moon 2:14 PM CST (2/21) 3:55 AM CST (2/21)
Length of Visible Light 11h 56m
Length of Day
11h 03m
Waxing Gibbous, 84% of the Moon is Illuminated
Feb 21
Waxing Gibbous
Feb 25
Full
Mar 4
Last Quarter
Mar 11
New
Mar 19
First Quarter

Hourly Weather History & Observations

Time (CST) Temp. Windchill Dew Point Humidity Pressure Visibility Wind Dir Wind Speed Gust Speed Precip Events Conditions
12:15 AM 28.4 °F 21.2 °F 14.0 °F 55% 30.19 in 10.0 mi ENE 6.9 mph - N/A   Overcast
12:35 AM 28.4 °F 23.3 °F 14.0 °F 55% 30.19 in 10.0 mi NE 4.6 mph - N/A   Overcast
12:55 AM 28.4 °F 22.2 °F 14.0 °F 55% 30.19 in 10.0 mi NE 5.8 mph - N/A   Overcast
1:15 AM 28.4 °F 20.4 °F 14.0 °F 55% 30.20 in 10.0 mi East 8.1 mph - N/A   Overcast
1:35 AM 28.4 °F 19.7 °F 14.0 °F 55% 30.18 in 10.0 mi ENE 9.2 mph 17.3 mph N/A   Overcast
1:55 AM 28.4 °F 19.7 °F 14.0 °F 55% 30.17 in 10.0 mi ENE 9.2 mph 16.1 mph N/A   Overcast
2:15 AM 28.4 °F 21.2 °F 14.0 °F 55% 30.16 in 10.0 mi ENE 6.9 mph - N/A   Overcast
2:35 AM 28.4 °F 19.7 °F 14.0 °F 55% 30.13 in 10.0 mi East 9.2 mph 17.3 mph N/A   Overcast
2:55 AM 28.4 °F 19.1 °F 12.2 °F 51% 30.13 in 10.0 mi East 10.4 mph 16.1 mph N/A   Overcast
3:15 AM 28.4 °F 18.0 °F 14.0 °F 55% 30.09 in 10.0 mi East 12.7 mph - N/A   Overcast
3:35 AM 28.4 °F 16.6 °F 14.0 °F 55% 30.09 in 10.0 mi East 16.1 mph 20.7 mph N/A   Overcast
3:55 AM 28.4 °F 21.2 °F 14.0 °F 55% 30.10 in 10.0 mi ENE 6.9 mph - N/A   Overcast
4:15 AM 28.4 °F 17.5 °F 14.0 °F 55% 30.09 in 10.0 mi East 13.8 mph 19.6 mph N/A   Overcast
4:35 AM 28.4 °F 19.1 °F 14.0 °F 55% 30.07 in 10.0 mi ENE 10.4 mph 19.6 mph N/A   Overcast
4:55 AM 28.4 °F 17.5 °F 14.0 °F 55% 30.07 in 10.0 mi East 13.8 mph 23.0 mph N/A   Overcast
5:15 AM 28.4 °F 17.5 °F 14.0 °F 55% 30.05 in 10.0 mi ENE 13.8 mph 20.7 mph N/A   Overcast
5:55 AM 28.4 °F 17.5 °F 14.0 °F 55% 30.06 in 10.0 mi ENE 13.8 mph 19.6 mph N/A   Overcast
6:15 AM 26.6 °F 14.7 °F 14.0 °F 59% 30.07 in 7.0 mi ENE 15.0 mph - N/A Snow Light Snow
6:35 AM 26.6 °F 15.7 °F 17.6 °F 69% 30.04 in 5.0 mi ENE 12.7 mph 23.0 mph 0.01 in Snow Light Snow
6:55 AM 26.6 °F 17.5 °F 19.4 °F 74% 30.03 in 4.0 mi ENE 9.2 mph 19.6 mph 0.03 in Snow Light Snow
7:15 AM 26.6 °F 15.2 °F 21.2 °F 80% 30.06 in 7.0 mi ENE 13.8 mph 19.6 mph N/A Snow , Thunderstorm Light Thunderstorms and Snow
7:35 AM 24.8 °F 13.4 °F 21.2 °F 86% 30.02 in 3.0 mi ENE 12.7 mph 19.6 mph 0.04 in Snow Light Snow
7:55 AM 26.6 °F 15.2 °F 23.0 °F 86% 29.97 in 5.0 mi ENE 13.8 mph 19.6 mph 0.08 in Thunderstorm Overcast
8:15 AM 26.6 °F 15.2 °F 23.0 °F 86% 30.00 in 5.0 mi ENE 13.8 mph - 0.01 in Snow , Thunderstorm Light Thunderstorms and Snow
8:35 AM 26.6 °F 14.7 °F 23.0 °F 86% 29.94 in 4.0 mi ENE 15.0 mph 27.6 mph 0.05 in Thunderstorm Thunderstorm
9:15 AM 26.6 °F 15.2 °F 24.8 °F 93% 29.89 in 4.0 mi ENE 13.8 mph 28.8 mph 0.01 in   Overcast
9:35 AM 26.6 °F 16.2 °F 24.8 °F 93% 29.92 in 5.0 mi ENE 11.5 mph 20.7 mph 0.02 in Snow Light Snow
9:55 AM 26.6 °F 22.6 °F 24.8 °F 93% 29.99 in 5.0 mi NE 3.5 mph - 0.03 in Snow , Thunderstorm Light Thunderstorms and Snow
10:15 AM 26.6 °F 22.6 °F 24.8 °F 93% 30.01 in 3.0 mi NNW 3.5 mph - N/A Snow Light Snow
10:35 AM 26.6 °F 18.2 °F 24.8 °F 93% 29.96 in 1.2 mi NE 8.1 mph - 0.03 in Snow , Thunderstorm Light Thunderstorms and Snow
10:55 AM 24.8 °F 16.1 °F 23.0 °F 93% 30.00 in 0.8 mi ENE 8.1 mph - 0.06 in Snow , Thunderstorm Light Thunderstorms and Snow
11:15 AM 24.8 °F 20.5 °F 23.0 °F 93% 30.06 in 1.0 mi WSW 3.5 mph 17.3 mph 0.04 in Snow Light Snow
11:35 AM 24.8 °F 16.1 °F 23.0 °F 93% 29.97 in 1.0 mi ENE 8.1 mph - 0.11 in Snow Light Snow
11:55 AM 23.0 °F 13.1 °F 23.0 °F 100% 29.96 in 1.2 mi NE 9.2 mph - 0.16 in Snow Light Snow
12:15 PM 24.8 °F 14.0 °F 23.0 °F 93% 29.91 in 2.0 mi ENE 11.5 mph 20.7 mph 0.02 in Snow Light Snow
12:35 PM 26.6 °F 16.8 °F 23.0 °F 86% 29.91 in 2.0 mi East 10.4 mph 20.7 mph 0.02 in Snow Light Snow
12:55 PM 26.6 °F 15.7 °F 23.0 °F 86% 29.89 in 2.0 mi East 12.7 mph 20.7 mph 0.02 in Snow Light Snow
1:15 PM 26.6 °F 14.7 °F 24.8 °F 93% 29.86 in 1.5 mi East 15.0 mph 21.9 mph N/A Snow Light Snow
1:35 PM 26.6 °F 14.3 °F 24.8 °F 93% 29.84 in 3.0 mi East 16.1 mph 23.0 mph N/A Snow Light Snow
1:55 PM 26.6 °F 13.8 °F 24.8 °F 93% 29.84 in 5.0 mi East 17.3 mph 24.2 mph N/A   Overcast
2:15 PM 26.6 °F 14.3 °F 26.6 °F 100% 29.83 in 7.0 mi East 16.1 mph 25.3 mph N/A   Overcast
2:35 PM 28.4 °F 17.5 °F 24.8 °F 86% 29.81 in 10.0 mi East 13.8 mph 21.9 mph N/A   Overcast
2:55 PM 28.4 °F 17.5 °F 26.6 °F 93% 29.82 in 7.0 mi East 13.8 mph 23.0 mph N/A   Overcast
3:15 PM 28.4 °F 19.1 °F 26.6 °F 93% 29.78 in 7.0 mi ENE 10.4 mph 17.3 mph N/A   Overcast
3:35 PM 28.4 °F 20.4 °F 26.6 °F 93% 29.79 in 7.0 mi ENE 8.1 mph - N/A Snow Light Snow
3:55 PM 28.4 °F 18.5 °F 26.6 °F 93% 29.77 in 4.0 mi East 11.5 mph - N/A   Overcast
4:15 PM 28.4 °F 19.1 °F 28.4 °F 100% 29.77 in 4.0 mi East 10.4 mph - N/A   Overcast
4:35 PM 28.4 °F 19.7 °F 28.4 °F 100% 29.76 in 3.0 mi East 9.2 mph - N/A   Overcast
4:55 PM 28.4 °F 20.4 °F 28.4 °F 100% 29.76 in 3.0 mi East 8.1 mph - N/A   Overcast
5:15 PM 30.2 °F 22.6 °F 28.4 °F 93% 29.76 in 3.0 mi East 8.1 mph - N/A   Overcast
5:35 PM 30.2 °F 23.4 °F 30.2 °F 100% 29.77 in 2.5 mi East 6.9 mph - N/A   Overcast
5:55 PM 30.2 °F 23.4 °F 30.2 °F 100% 29.75 in 2.5 mi East 6.9 mph - N/A   Overcast
6:15 PM 30.2 °F 26.7 °F 30.2 °F 100% 29.77 in 2.5 mi East 3.5 mph - N/A   Overcast
6:35 PM 30.2 °F 26.7 °F 30.2 °F 100% 29.78 in 2.0 mi East 3.5 mph - N/A   Overcast
6:55 PM 30.2 °F 25.4 °F 30.2 °F 100% 29.77 in 2.0 mi East 4.6 mph - N/A   Overcast
7:15 PM 30.2 °F 26.7 °F 30.2 °F 100% 29.77 in 2.5 mi East 3.5 mph - N/A   Overcast
7:35 PM 32.0 °F 26.4 °F 32.0 °F 100% 29.77 in 4.0 mi ESE 5.8 mph - N/A   Overcast
7:55 PM 32.0 °F 24.2 °F 32.0 °F 100% 29.76 in 10.0 mi SE 9.2 mph - N/A   Overcast
8:15 PM 32.0 °F 23.6 °F 32.0 °F 100% 29.76 in 10.0 mi SE 10.4 mph - N/A   Overcast
8:35 PM 32.0 °F 24.2 °F 32.0 °F 100% 29.76 in 10.0 mi SE 9.2 mph - N/A   Overcast
8:55 PM 32.0 °F 24.2 °F 32.0 °F 100% 29.76 in 10.0 mi SE 9.2 mph - N/A   Overcast
9:15 PM 32.0 °F 23.6 °F 32.0 °F 100% 29.76 in 10.0 mi SE 10.4 mph - N/A   Overcast
9:35 PM 32.0 °F 24.8 °F 32.0 °F 100% 29.77 in 10.0 mi SSE 8.1 mph - N/A   Overcast
9:55 PM 32.0 °F 25.6 °F 32.0 °F 100% 29.77 in 10.0 mi SSE 6.9 mph - N/A   Overcast
10:15 PM 32.0 °F 24.8 °F 32.0 °F 100% 29.77 in 10.0 mi SSE 8.1 mph - N/A   Overcast
10:35 PM 32.0 °F 24.8 °F 32.0 °F 100% 29.77 in 7.0 mi SSE 8.1 mph - N/A Snow Light Snow
10:55 PM 32.0 °F 25.6 °F 32.0 °F 100% 29.77 in 10.0 mi South 6.9 mph - N/A   Overcast
11:15 PM 32.0 °F 26.4 °F 32.0 °F 100% 29.77 in 10.0 mi South 5.8 mph - N/A   Overcast
11:35 PM 32.0 °F 26.4 °F 32.0 °F 100% 29.78 in 10.0 mi South 5.8 mph - N/A   Overcast
11:55 PM 32.0 °F 25.6 °F 32.0 °F 100% 29.78 in 7.0 mi South 6.9 mph - N/A Snow Light Snow